Time;durP1;ratioP1;P1;durP2;ratioP2;P2;SDS_P1;SDS_P2;PMS_P1;PMS_P2;Temp;Humidity;BMP_temperature;BMP_pressure;BME280_temperature;BME280_humidity;BME280_pressure;Samples;Min_cycle;Max_cycle;Signal;HPM_P1;HPM_P2
2022/12/28 00:04:40;;;;;;;8.33;1.60;;;;;;;;;;10495221;28;20211;-59
2022/12/28 00:09:41;;;;;;;1.60;1.27;;;;;;;;;;10495406;28;20215;-56
2022/12/28 00:14:41;;;;;;;2.93;1.17;;;;;;;;;;10493965;28;20235;-55
2022/12/28 00:19:41;;;;;;;1.90;1.27;;;;;;;;;;10494683;28;20219;-55
2022/12/28 00:24:41;;;;;;;2.67;1.40;;;;;;;;;;10494635;28;20625;-59
2022/12/28 00:29:42;;;;;;;5.17;1.37;;;;;;;;;;10495213;28;20179;-55
2022/12/28 00:34:42;;;;;;;3.60;1.63;;;;;;;;;;10492988;28;20195;-59
2022/12/28 00:39:42;;;;;;;1.33;1.10;;;;;;;;;;10494106;28;20699;-58
2022/12/28 00:44:43;;;;;;;5.05;1.42;;;;;;;;;;10492844;28;20203;-58
2022/12/28 00:49:44;;;;;;;2.43;1.77;;;;;;;;;;10475883;28;20190;-56
2022/12/28 00:54:44;;;;;;;2.70;1.37;;;;;;;;;;10474209;28;20217;-56
2022/12/28 00:59:44;;;;;;;2.83;1.50;;;;;;;;;;10493091;28;20297;-60
2022/12/28 01:04:44;;;;;;;3.10;2.17;;;;;;;;;;10492072;28;20255;-61
2022/12/28 01:09:44;;;;;;;3.90;1.50;;;;;;;;;;10492647;28;20235;-59
2022/12/28 01:14:44;;;;;;;5.87;1.70;;;;;;;;;;10501162;22;20260;-67
2022/12/28 01:19:45;;;;;;;4.10;1.47;;;;;;;;;;10372866;28;20233;-65
2022/12/28 01:24:45;;;;;;;2.47;1.40;;;;;;;;;;10368900;28;20621;-65
2022/12/28 01:29:45;;;;;;;6.47;1.50;;;;;;;;;;10366599;28;20185;-67
2022/12/28 01:34:45;;;;;;;3.73;1.60;;;;;;;;;;10366903;28;20301;-67
2022/12/28 01:39:45;;;;;;;5.03;1.40;;;;;;;;;;10366482;28;20212;-66
2022/12/28 01:44:46;;;;;;;3.80;1.50;;;;;;;;;;10366992;28;20586;-66
2022/12/28 01:49:49;;;;;;;3.07;1.50;;;;;;;;;;10368563;28;20191;-66
2022/12/28 01:54:49;;;;;;;1.97;1.50;;;;;;;;;;10366528;28;20319;-66
2022/12/28 01:59:53;;;;;;;7.30;1.27;;;;;;;;;;10367138;28;20278;-66
2022/12/28 02:04:53;;;;;;;2.20;1.27;;;;;;;;;;10366061;28;20761;-67
2022/12/28 02:09:54;;;;;;;1.80;1.20;;;;;;;;;;10367236;28;20239;-66
2022/12/28 02:14:56;;;;;;;1.17;1.03;;;;;;;;;;10398770;28;20522;-66
2022/12/28 02:19:56;;;;;;;1.33;0.90;;;;;;;;;;10407943;28;20311;-63
2022/12/28 02:25:06;;;;;;;2.03;0.90;;;;;;;;;;10407084;28;20218;-64
2022/12/28 02:30:11;;;;;;;3.83;1.30;;;;;;;;;;10406344;28;20442;-67
2022/12/28 02:35:18;;;;;;;1.47;1.17;;;;;;;;;;10407188;28;20690;-68
2022/12/28 02:40:33;;;;;;;1.67;0.80;;;;;;;;;;10406292;28;20255;-67
2022/12/28 02:51:18;;;;;;;0.97;0.80;;;;;;;;;;10406934;28;20218;-66
2022/12/28 02:56:27;;;;;;;1.47;1.10;;;;;;;;;;10405974;28;20222;-66
2022/12/28 03:01:35;;;;;;;1.43;1.20;;;;;;;;;;10405267;28;20186;-67
2022/12/28 03:12:07;;;;;;;4.13;1.20;;;;;;;;;;10404713;28;20237;-67
2022/12/28 03:33:09;;;;;;;1.23;1.10;;;;;;;;;;10405229;28;20612;-66
2022/12/28 03:38:11;;;;;;;2.40;1.40;;;;;;;;;;10406560;28;20227;-66
2022/12/28 03:48:36;;;;;;;5.67;1.80;;;;;;;;;;10404549;28;20254;-65
2022/12/28 03:53:41;;;;;;;3.60;1.20;;;;;;;;;;10408977;28;20605;-67
2022/12/28 03:58:45;;;;;;;2.83;1.20;;;;;;;;;;10411620;28;20789;-67
2022/12/28 04:03:47;;;;;;;5.47;1.63;;;;;;;;;;10408989;28;20191;-65
2022/12/28 04:08:47;;;;;;;2.27;1.30;;;;;;;;;;10404447;28;20210;-65
2022/12/28 04:13:47;;;;;;;1.97;1.57;;;;;;;;;;10405218;28;20557;-65
2022/12/28 04:18:50;;;;;;;3.83;1.83;;;;;;;;;;10403795;28;20240;-64
2022/12/28 04:23:50;;;;;;;3.77;1.73;;;;;;;;;;10402871;28;20772;-64
2022/12/28 04:28:56;;;;;;;3.03;1.60;;;;;;;;;;10403975;28;20691;-65
2022/12/28 04:34:10;;;;;;;2.60;1.60;;;;;;;;;;10403184;28;20184;-64
2022/12/28 04:39:13;;;;;;;2.23;1.43;;;;;;;;;;10407935;28;20660;-66
2022/12/28 04:44:14;;;;;;;4.83;1.50;;;;;;;;;;10444602;28;20271;-63
2022/12/28 04:49:14;;;;;;;5.07;1.90;;;;;;;;;;10445555;28;20662;-65
2022/12/28 04:54:14;;;;;;;4.73;2.33;;;;;;;;;;10443025;28;20255;-65
2022/12/28 04:59:14;;;;;;;3.60;1.60;;;;;;;;;;10444687;28;20223;-65
2022/12/28 05:04:14;;;;;;;2.47;1.57;;;;;;;;;;10447430;28;20196;-65
2022/12/28 05:09:15;;;;;;;2.80;1.93;;;;;;;;;;10451675;28;20558;-65
2022/12/28 05:14:15;;;;;;;3.33;2.20;;;;;;;;;;10450971;28;20195;-65
2022/12/28 05:19:15;;;;;;;4.93;1.87;;;;;;;;;;10451053;28;20825;-63
2022/12/28 05:24:15;;;;;;;2.27;1.30;;;;;;;;;;10450720;28;20192;-64
2022/12/28 05:29:15;;;;;;;2.70;1.70;;;;;;;;;;10450959;28;20400;-65
2022/12/28 05:34:15;;;;;;;3.57;1.00;;;;;;;;;;10450209;28;20200;-65
2022/12/28 05:39:16;;;;;;;3.50;1.70;;;;;;;;;;10450439;28;20237;-66
2022/12/28 05:44:16;;;;;;;5.20;2.10;;;;;;;;;;10449945;28;20333;-66
2022/12/28 05:49:16;;;;;;;25.03;10.00;;;;;;;;;;10450069;28;20207;-64
2022/12/28 05:54:16;;;;;;;11.10;3.87;;;;;;;;;;10449511;28;20194;-65
2022/12/28 05:59:17;;;;;;;12.57;5.67;;;;;;;;;;10449981;28;20218;-64
2022/12/28 06:04:17;;;;;;;7.53;2.63;;;;;;;;;;10449079;28;20191;-65
2022/12/28 06:09:18;;;;;;;2.40;2.10;;;;;;;;;;10449480;28;20192;-63
2022/12/28 06:14:18;;;;;;;2.33;1.57;;;;;;;;;;10448177;28;20674;-64
2022/12/28 06:19:18;;;;;;;2.57;1.70;;;;;;;;;;10448769;28;20294;-64
2022/12/28 06:24:18;;;;;;;2.77;1.57;;;;;;;;;;10448391;28;20219;-62
2022/12/28 06:29:18;;;;;;;2.53;1.23;;;;;;;;;;10449404;28;20194;-64
2022/12/28 06:34:18;;;;;;;3.17;1.20;;;;;;;;;;10447441;28;20188;-65
2022/12/28 06:39:19;;;;;;;5.17;1.47;;;;;;;;;;10448703;28;20220;-65
2022/12/28 06:44:19;;;;;;;4.77;2.10;;;;;;;;;;10448343;28;20188;-65
2022/12/28 06:49:20;;;;;;;1.70;1.43;;;;;;;;;;10447645;28;20619;-66
2022/12/28 06:54:20;;;;;;;2.40;1.50;;;;;;;;;;10428090;28;20254;-65
2022/12/28 06:59:20;;;;;;;5.97;1.90;;;;;;;;;;10406146;28;20653;-64
2022/12/28 07:04:21;;;;;;;2.20;1.50;;;;;;;;;;10406452;28;20246;-64
2022/12/28 07:09:21;;;;;;;4.03;1.40;;;;;;;;;;10406735;28;20184;-65
2022/12/28 07:14:21;;;;;;;2.07;1.57;;;;;;;;;;10403943;28;20192;-64
2022/12/28 07:19:21;;;;;;;5.50;1.80;;;;;;;;;;10433581;23;20243;-57
2022/12/28 07:24:21;;;;;;;6.00;1.57;;;;;;;;;;10447200;28;20655;-58
2022/12/28 07:29:21;;;;;;;5.00;1.50;;;;;;;;;;10454203;28;20635;-57
2022/12/28 07:34:22;;;;;;;2.40;1.40;;;;;;;;;;10454860;28;20279;-59
2022/12/28 07:39:22;;;;;;;3.80;1.23;;;;;;;;;;10455609;28;20269;-56
2022/12/28 07:44:22;;;;;;;1.30;0.80;;;;;;;;;;10427306;28;20189;-56
2022/12/28 07:49:22;;;;;;;1.73;1.13;;;;;;;;;;10414255;28;20239;-58
2022/12/28 07:54:23;;;;;;;1.30;0.97;;;;;;;;;;10412597;28;20447;-60
2022/12/28 07:59:23;;;;;;;4.10;1.50;;;;;;;;;;10412684;28;20220;-55
2022/12/28 08:04:23;;;;;;;4.20;1.40;;;;;;;;;;10393593;28;20192;-57
2022/12/28 08:09:23;;;;;;;1.43;1.33;;;;;;;;;;10409661;28;20258;-60
2022/12/28 08:14:23;;;;;;;2.87;1.73;;;;;;;;;;10408813;28;20192;-61
2022/12/28 08:19:23;;;;;;;2.63;1.60;;;;;;;;;;10407910;28;20240;-60
2022/12/28 08:24:24;;;;;;;3.07;1.57;;;;;;;;;;10409687;28;20185;-59
2022/12/28 08:29:24;;;;;;;2.47;1.37;;;;;;;;;;10408753;28;20212;-60
2022/12/28 08:34:25;;;;;;;2.03;1.50;;;;;;;;;;10408432;28;20185;-55
2022/12/28 08:39:26;;;;;;;1.93;1.10;;;;;;;;;;10407366;28;20216;-58
2022/12/28 08:44:26;;;;;;;12.57;1.70;;;;;;;;;;10406907;28;20197;-58
2022/12/28 08:49:26;;;;;;;3.33;1.60;;;;;;;;;;10406974;28;20244;-60
2022/12/28 08:54:26;;;;;;;3.90;1.13;;;;;;;;;;10408385;28;20184;-59
2022/12/28 08:59:26;;;;;;;1.53;1.43;;;;;;;;;;10408814;28;20715;-60
2022/12/28 09:04:27;;;;;;;4.32;2.25;;;;;;;;;;10406544;28;20697;-59
2022/12/28 09:09:27;;;;;;;15.50;7.03;;;;;;;;;;10406798;28;20212;-60
2022/12/28 09:14:27;;;;;;;3.03;1.93;;;;;;;;;;10406477;28;20199;-60
2022/12/28 09:19:27;;;;;;;7.03;4.60;;;;;;;;;;10408069;28;20236;-61
2022/12/28 09:24:27;;;;;;;7.30;4.93;;;;;;;;;;10406867;28;20214;-61
2022/12/28 09:29:27;;;;;;;5.83;4.27;;;;;;;;;;10407461;28;20359;-60
2022/12/28 09:34:28;;;;;;;4.30;2.30;;;;;;;;;;10406028;28;20185;-59
2022/12/28 09:39:28;;;;;;;3.27;3.00;;;;;;;;;;10405634;28;20250;-58
2022/12/28 09:44:37;;;;;;;3.43;3.13;;;;;;;;;;10406023;28;20599;-59
2022/12/28 09:49:42;;;;;;;4.90;1.70;;;;;;;;;;10406355;28;20224;-60
2022/12/28 09:54:42;;;;;;;1.70;1.40;;;;;;;;;;10405294;28;20200;-60
2022/12/28 09:59:43;;;;;;;5.30;1.60;;;;;;;;;;10406209;28;20224;-59
2022/12/28 10:04:43;;;;;;;2.17;1.90;;;;;;;;;;10404490;28;20296;-59
2022/12/28 10:09:43;;;;;;;1.90;1.50;;;;;;;;;;10405100;28;20217;-60
2022/12/28 10:14:45;;;;;;;4.43;2.97;;;;;;;;;;10404462;28;20196;-59
2022/12/28 10:19:46;;;;;;;6.33;4.50;;;;;;;;;;10405858;28;20234;-60
2022/12/28 10:24:46;;;;;;;1.33;1.17;;;;;;;;;;10404525;28;20207;-62
2022/12/28 10:29:48;;;;;;;3.13;2.50;;;;;;;;;;10405388;28;20243;-61
2022/12/28 10:34:58;;;;;;;6.73;5.87;;;;;;;;;;10403854;28;20197;-58
2022/12/28 10:40:00;;;;;;;3.67;2.33;;;;;;;;;;10403653;28;20326;-58
2022/12/28 10:45:02;;;;;;;4.43;4.03;;;;;;;;;;10404643;28;20188;-61
2022/12/28 10:50:03;;;;;;;1.67;1.57;;;;;;;;;;10406865;28;20211;-58
2022/12/28 10:55:23;;;;;;;4.73;2.67;;;;;;;;;;10402569;28;20181;-57
2022/12/28 11:00:24;;;;;;;7.73;5.40;;;;;;;;;;10404298;28;20224;-61
2022/12/28 11:05:25;;;;;;;3.93;1.63;;;;;;;;;;10412545;28;20204;-60
2022/12/28 11:10:27;;;;;;;1.63;1.47;;;;;;;;;;10411687;28;20252;-58
2022/12/28 11:15:28;;;;;;;3.27;1.67;;;;;;;;;;10411476;28;20687;-58
2022/12/28 11:20:36;;;;;;;4.67;1.17;;;;;;;;;;10410527;28;20645;-59
2022/12/28 11:25:36;;;;;;;4.00;1.80;;;;;;;;;;10411173;28;20197;-58
2022/12/28 11:30:37;;;;;;;2.77;1.70;;;;;;;;;;10410586;28;20212;-60
2022/12/28 11:35:39;;;;;;;3.70;1.20;;;;;;;;;;10411889;28;20197;-61
2022/12/28 11:40:42;;;;;;;1.77;1.03;;;;;;;;;;10409823;28;20216;-59
2022/12/28 11:45:48;;;;;;;1.97;1.30;;;;;;;;;;10410988;28;20646;-61
2022/12/28 11:50:50;;;;;;;5.47;1.23;;;;;;;;;;10410121;28;20578;-59
2022/12/28 11:56:02;;;;;;;1.37;1.00;;;;;;;;;;10410390;28;20184;-60
2022/12/28 12:01:03;;;;;;;1.37;1.13;;;;;;;;;;10409393;28;20347;-61
2022/12/28 12:06:03;;;;;;;1.77;1.50;;;;;;;;;;10410364;28;20189;-61
2022/12/28 12:11:20;;;;;;;5.40;1.35;;;;;;;;;;10387543;28;20221;-59
2022/12/28 12:16:33;;;;;;;1.60;1.33;;;;;;;;;;10399759;28;20198;-60
2022/12/28 12:21:36;;;;;;;2.20;1.20;;;;;;;;;;10393793;28;20344;-57
2022/12/28 12:26:45;;;;;;;1.43;1.00;;;;;;;;;;10405325;28;20261;-60
2022/12/28 12:31:47;;;;;;;1.53;0.80;;;;;;;;;;10399216;28;20213;-59
2022/12/28 12:37:08;;;;;;;1.27;1.00;;;;;;;;;;10401721;28;20205;-61
2022/12/28 12:42:27;;;;;;;1.90;1.07;;;;;;;;;;10402908;28;20216;-61
2022/12/28 12:47:46;;;;;;;2.90;1.40;;;;;;;;;;10400606;28;20682;-60
2022/12/28 12:52:59;;;;;;;3.70;1.53;;;;;;;;;;10401523;28;20216;-57
2022/12/28 12:58:04;;;;;;;1.40;1.30;;;;;;;;;;10403533;28;20220;-61
2022/12/28 13:03:04;;;;;;;2.80;1.60;;;;;;;;;;10402379;28;20208;-62
2022/12/28 13:08:04;;;;;;;5.23;1.17;;;;;;;;;;10395988;28;20201;-59
2022/12/28 13:13:05;;;;;;;1.93;1.70;;;;;;;;;;10400103;28;20266;-59
2022/12/28 13:18:13;;;;;;;10.50;6.10;;;;;;;;;;10394535;28;20226;-61
2022/12/28 13:23:14;;;;;;;2.23;1.30;;;;;;;;;;10398277;28;20240;-61
2022/12/28 13:28:22;;;;;;;1.33;1.10;;;;;;;;;;10398959;28;20196;-62
2022/12/28 13:33:22;;;;;;;1.63;1.20;;;;;;;;;;10398525;28;20571;-63
2022/12/28 13:38:22;;;;;;;3.90;1.17;;;;;;;;;;10399161;28;20208;-63
2022/12/28 13:43:40;;;;;;;1.97;1.17;;;;;;;;;;10398521;28;20205;-63
2022/12/28 13:48:42;;;;;;;2.77;1.60;;;;;;;;;;10394090;28;21081;-62
2022/12/28 13:53:44;;;;;;;4.40;2.10;;;;;;;;;;10399104;28;20193;-62
2022/12/28 13:58:47;;;;;;;7.87;1.53;;;;;;;;;;10391237;28;20307;-61
2022/12/28 14:03:47;;;;;;;2.10;1.50;;;;;;;;;;10397739;28;20185;-62
2022/12/28 14:08:47;;;;;;;2.03;1.60;;;;;;;;;;10399565;28;20600;-63
2022/12/28 14:13:48;;;;;;;2.50;1.47;;;;;;;;;;10399032;28;20830;-62
2022/12/28 14:18:48;;;;;;;3.60;1.57;;;;;;;;;;10399427;28;20237;-63
2022/12/28 14:23:48;;;;;;;2.83;1.60;;;;;;;;;;10398580;28;20497;-62
2022/12/28 14:28:51;;;;;;;2.43;1.80;;;;;;;;;;10398557;28;21001;-63
2022/12/28 14:33:53;;;;;;;2.30;1.87;;;;;;;;;;10397874;28;20207;-63
2022/12/28 14:38:55;;;;;;;1.30;1.20;;;;;;;;;;10395707;28;20220;-63
2022/12/28 14:43:58;;;;;;;2.20;1.53;;;;;;;;;;10397639;28;20195;-62
2022/12/28 14:48:59;;;;;;;5.47;1.50;;;;;;;;;;10399515;28;20216;-63
2022/12/28 14:54:12;;;;;;;2.07;1.20;;;;;;;;;;10398050;28;20201;-65
2022/12/28 14:59:19;;;;;;;2.53;1.90;;;;;;;;;;10397865;28;20228;-64
2022/12/28 15:04:36;;;;;;;4.40;1.27;;;;;;;;;;10396591;28;20185;-64
2022/12/28 15:09:37;;;;;;;2.97;1.57;;;;;;;;;;10397472;28;20201;-63
2022/12/28 15:14:37;;;;;;;1.53;1.43;;;;;;;;;;10394954;28;20196;-63
2022/12/28 15:19:37;;;;;;;5.07;2.00;;;;;;;;;;10396390;28;20298;-64
2022/12/28 15:24:40;;;;;;;4.70;3.23;;;;;;;;;;10395385;28;20196;-63
2022/12/28 15:29:40;;;;;;;4.73;1.73;;;;;;;;;;10394199;28;20221;-64
2022/12/28 15:34:40;;;;;;;3.23;1.60;;;;;;;;;;10393517;28;20280;-63
2022/12/28 15:39:40;;;;;;;1.83;1.47;;;;;;;;;;10395078;28;20269;-59
2022/12/28 15:44:40;;;;;;;8.07;4.47;;;;;;;;;;10395388;28;20204;-61
2022/12/28 15:49:41;;;;;;;2.77;2.03;;;;;;;;;;10371362;28;20753;-62
2022/12/28 15:54:41;;;;;;;3.93;1.80;;;;;;;;;;10385759;28;20569;-64
2022/12/28 15:59:41;;;;;;;4.17;2.20;;;;;;;;;;10403502;28;20230;-62
2022/12/28 16:04:41;;;;;;;2.30;1.20;;;;;;;;;;10403234;28;20193;-61
2022/12/28 16:09:41;;;;;;;2.80;1.83;;;;;;;;;;10404397;28;20225;-63
2022/12/28 16:14:43;;;;;;;6.37;2.63;;;;;;;;;;10402791;28;20312;-63
2022/12/28 16:19:44;;;;;;;4.83;1.80;;;;;;;;;;10403887;28;20237;-64
2022/12/28 16:24:44;;;;;;;1.20;1.10;;;;;;;;;;10403246;28;20202;-63
2022/12/28 16:29:45;;;;;;;3.50;3.00;;;;;;;;;;10403847;28;20212;-63
2022/12/28 16:34:45;;;;;;;3.67;2.63;;;;;;;;;;10402447;28;20255;-61
2022/12/28 16:39:45;;;;;;;4.67;1.90;;;;;;;;;;10402036;28;20645;-64
2022/12/28 16:44:45;;;;;;;4.60;2.40;;;;;;;;;;10402979;28;20193;-62
2022/12/28 16:49:45;;;;;;;6.60;3.13;;;;;;;;;;10401736;28;20208;-63
2022/12/28 16:54:45;;;;;;;2.10;1.97;;;;;;;;;;10402200;28;20188;-63
2022/12/28 16:59:46;;;;;;;1.63;1.53;;;;;;;;;;10401750;28;20658;-63
2022/12/28 17:04:46;;;;;;;2.87;2.20;;;;;;;;;;10402115;28;20192;-61
2022/12/28 17:09:46;;;;;;;2.20;1.57;;;;;;;;;;10400138;28;20243;-60
2022/12/28 17:14:46;;;;;;;3.33;1.97;;;;;;;;;;10402436;28;20229;-63
2022/12/28 17:19:46;;;;;;;3.93;1.60;;;;;;;;;;10404988;28;20247;-63
2022/12/28 17:24:47;;;;;;;3.47;1.60;;;;;;;;;;10403922;28;20180;-63
2022/12/28 17:29:47;;;;;;;3.27;1.60;;;;;;;;;;10404203;28;20714;-62
2022/12/28 17:34:47;;;;;;;3.27;2.07;;;;;;;;;;10401956;28;20197;-62
2022/12/28 17:39:47;;;;;;;5.47;1.70;;;;;;;;;;10403118;28;20216;-60
2022/12/28 17:44:47;;;;;;;3.93;1.87;;;;;;;;;;10402524;28;20188;-64
2022/12/28 17:49:48;;;;;;;1.70;1.60;;;;;;;;;;10403337;28;20586;-60
2022/12/28 17:54:48;;;;;;;3.80;1.60;;;;;;;;;;10401256;28;20189;-60
2022/12/28 17:59:48;;;;;;;3.67;2.00;;;;;;;;;;10402087;28;20290;-60
2022/12/28 18:04:48;;;;;;;3.73;2.30;;;;;;;;;;10402119;28;20197;-62
2022/12/28 18:09:49;;;;;;;8.20;5.60;;;;;;;;;;10401219;28;20565;-64
2022/12/28 18:14:49;;;;;;;7.03;2.10;;;;;;;;;;10402201;28;20201;-60
2022/12/28 18:19:52;;;;;;;5.00;2.00;;;;;;;;;;10401405;28;20502;-60
2022/12/28 18:24:52;;;;;;;8.20;3.77;;;;;;;;;;10400228;28;20447;-58
2022/12/28 18:29:52;;;;;;;3.37;1.90;;;;;;;;;;10401824;28;20239;-60
2022/12/28 18:34:52;;;;;;;2.67;1.73;;;;;;;;;;10401945;28;20674;-60
2022/12/28 18:39:53;;;;;;;5.17;1.50;;;;;;;;;;10401080;28;20315;-61
2022/12/28 18:44:53;;;;;;;3.47;1.90;;;;;;;;;;10401151;28;20193;-61
2022/12/28 18:49:53;;;;;;;3.10;1.67;;;;;;;;;;10401249;28;20204;-60
2022/12/28 18:54:53;;;;;;;3.03;1.70;;;;;;;;;;10400743;28;20238;-60
2022/12/28 18:59:54;;;;;;;2.03;1.20;;;;;;;;;;10401382;28;20241;-61
2022/12/28 19:04:54;;;;;;;2.27;1.50;;;;;;;;;;10400986;28;20185;-60
2022/12/28 19:10:14;;;;;;;1.87;1.70;;;;;;;;;;10401682;28;20212;-63
2022/12/28 19:15:14;;;;;;;3.13;2.20;;;;;;;;;;10398740;28;20176;-62
2022/12/28 19:20:15;;;;;;;5.33;1.67;;;;;;;;;;10397699;28;20228;-61
2022/12/28 19:25:15;;;;;;;4.63;2.80;;;;;;;;;;10403524;28;20238;-61
2022/12/28 19:30:15;;;;;;;1.93;1.57;;;;;;;;;;10406673;28;20223;-58
2022/12/28 19:35:15;;;;;;;1.50;1.20;;;;;;;;;;10408021;28;20427;-61
2022/12/28 19:40:15;;;;;;;3.57;2.00;;;;;;;;;;10404992;28;20208;-58
2022/12/28 19:45:17;;;;;;;3.00;2.07;;;;;;;;;;10405550;28;20629;-62
2022/12/28 19:50:17;;;;;;;2.90;1.80;;;;;;;;;;10406806;28;20216;-62
2022/12/28 19:55:17;;;;;;;3.00;2.00;;;;;;;;;;10406801;28;20196;-61
2022/12/28 20:00:17;;;;;;;4.20;1.80;;;;;;;;;;10406146;28;20483;-62
2022/12/28 20:05:17;;;;;;;3.33;1.67;;;;;;;;;;10404955;28;20196;-62
2022/12/28 20:10:17;;;;;;;3.57;2.00;;;;;;;;;;10406797;28;20216;-61
2022/12/28 20:15:18;;;;;;;1.45;1.20;;;;;;;;;;10405212;28;20234;-64
2022/12/28 20:20:18;;;;;;;5.97;3.23;;;;;;;;;;10404184;28;20235;-60
2022/12/28 20:25:18;;;;;;;2.40;1.70;;;;;;;;;;10407482;28;20203;-61
2022/12/28 20:30:18;;;;;;;2.23;1.33;;;;;;;;;;10406758;28;20232;-59
2022/12/28 20:35:19;;;;;;;1.87;1.40;;;;;;;;;;10405000;28;20196;-60
2022/12/28 20:40:19;;;;;;;5.37;3.57;;;;;;;;;;10407882;28;20282;-62
2022/12/28 20:45:20;;;;;;;14.40;6.33;;;;;;;;;;10406646;28;20234;-60
2022/12/28 20:50:20;;;;;;;10.47;5.27;;;;;;;;;;10404949;28;20227;-57
2022/12/28 20:55:20;;;;;;;16.97;8.30;;;;;;;;;;10403394;28;20246;-59
2022/12/28 21:00:20;;;;;;;5.47;2.80;;;;;;;;;;10402463;28;20220;-63
2022/12/28 21:05:20;;;;;;;6.03;3.03;;;;;;;;;;10404943;28;20446;-62
2022/12/28 21:10:21;;;;;;;3.13;2.13;;;;;;;;;;10406536;28;20213;-60
2022/12/28 21:15:21;;;;;;;2.63;1.70;;;;;;;;;;10405085;28;20616;-59
2022/12/28 21:20:21;;;;;;;1.57;1.47;;;;;;;;;;10402755;28;20228;-59
2022/12/28 21:25:21;;;;;;;2.83;1.60;;;;;;;;;;10403799;28;20180;-62
2022/12/28 21:30:21;;;;;;;3.10;1.90;;;;;;;;;;10402272;28;20204;-54
2022/12/28 21:35:25;;;;;;;5.30;2.30;;;;;;;;;;10403763;28;20679;-57
2022/12/28 21:40:25;;;;;;;7.90;2.90;;;;;;;;;;10403910;28;20652;-62
2022/12/28 21:45:25;;;;;;;3.83;2.47;;;;;;;;;;10402356;28;20227;-63
2022/12/28 21:50:25;;;;;;;3.90;1.97;;;;;;;;;;10400101;28;20597;-57
2022/12/28 21:55:40;;;;;;;2.77;2.33;;;;;;;;;;10403000;28;20204;-59
2022/12/28 22:06:02;;;;;;;2.30;1.67;;;;;;;;;;10401920;28;20671;-62
2022/12/28 22:16:21;;;;;;;3.10;1.90;;;;;;;;;;10402110;28;20279;-61
2022/12/28 22:21:21;;;;;;;4.43;2.23;;;;;;;;;;10401352;28;20238;-58
2022/12/28 22:26:22;;;;;;;2.63;1.20;;;;;;;;;;10402275;28;20197;-63
2022/12/28 22:31:22;;;;;;;1.97;1.50;;;;;;;;;;10403097;28;20216;-59
2022/12/28 22:36:22;;;;;;;2.80;1.73;;;;;;;;;;10402355;28;20187;-61
2022/12/28 22:41:23;;;;;;;3.57;1.57;;;;;;;;;;10403776;28;20738;-61
2022/12/28 22:46:23;;;;;;;3.30;1.70;;;;;;;;;;10401874;28;20184;-57
2022/12/28 22:51:23;;;;;;;1.63;1.40;;;;;;;;;;10402498;28;20879;-61
2022/12/28 22:56:23;;;;;;;1.77;1.60;;;;;;;;;;10401462;28;20894;-56
2022/12/28 23:01:23;;;;;;;2.13;1.70;;;;;;;;;;10402245;28;20564;-61
2022/12/28 23:06:23;;;;;;;2.90;1.80;;;;;;;;;;10402638;28;20191;-57
2022/12/28 23:11:36;;;;;;;3.00;1.90;;;;;;;;;;10402017;28;20629;-61
2022/12/28 23:16:36;;;;;;;2.23;1.47;;;;;;;;;;10402128;28;20246;-62
2022/12/28 23:32:15;;;;;;;2.53;1.70;;;;;;;;;;10401884;28;20578;-61
2022/12/28 23:37:15;;;;;;;2.07;1.80;;;;;;;;;;10403087;28;20193;-57
2022/12/28 23:42:16;;;;;;;3.60;1.63;;;;;;;;;;10401427;28;20227;-62
2022/12/28 23:47:16;;;;;;;1.50;1.40;;;;;;;;;;10401510;28;20207;-61
2022/12/28 23:52:16;;;;;;;2.53;1.20;;;;;;;;;;10401306;28;20259;-60
2022/12/28 23:57:16;;;;;;;2.00;1.60;;;;;;;;;;10401158;28;20239;-60
